Weather at Milne Stadium Heliport

Public forecast

Using degrees Fahrenheit for public forecast. Weather courtesy of forecast.io.

Closest aviation weather report (METAR) to Milne Stadium Heliport

Closest report is Albuquerque International Sunport, 2.6 nm (4.7 km) SSE.

2024/05/19 20:52 (retrieved 50 minutes ago)

KABQ 192052Z 28014G26KT 10SM FEW110 28/M06 A3000 RMK AO2 PK WND 28029/2013 SLP075 T02831061 56020

Closest aviation forecast (TAF) to Milne Stadium Heliport

Closest forecast is Albuquerque International Sunport, 2.6 nm (4.7 km) SSE.

2024/05/19 18:30 (retrieved 3 hours ago)

TAF KABQ 191726Z 1918/2018 26015G25KT P6SM FEW120 FM200200 28008KT P6SM SKC FM201100 VRB05KT P6SM SCT250